Time;durP1;ratioP1;P1;durP2;ratioP2;P2;SDS_P1;SDS_P2;PMS_P1;PMS_P2;Temp;Humidity;BMP_temperature;BMP_pressure;BME280_temperature;BME280_humidity;BME280_pressure;Samples;Min_cycle;Max_cycle;Signal;HPM_P1;HPM_P2
2024/02/26 00:08:23;;;;;;;;;;;7.40;99.90;;;;;;6751063;88;20059;-80
2024/02/26 00:18:23;;;;;;;;;;;7.40;99.90;;;;;;6750614;88;20031;-80
2024/02/26 00:28:24;;;;;;;;;;;7.60;99.90;;;;;;6750784;88;20050;-80
2024/02/26 00:38:25;;;;;;;;;;;7.70;99.90;;;;;;6750945;88;20026;-81
2024/02/26 00:48:25;;;;;;;;;;;7.70;99.90;;;;;;6751103;88;20023;-81
2024/02/26 00:58:26;;;;;;;;;;;7.60;99.90;;;;;;6750608;88;20050;-80
2024/02/26 01:08:26;;;;;;;;;;;7.30;99.90;;;;;;6750369;88;20034;-79
2024/02/26 01:18:27;;;;;;;;;;;7.20;99.90;;;;;;6750155;88;20042;-80
2024/02/26 01:28:27;;;;;;;;;;;7.00;99.90;;;;;;6749731;88;20060;-79
2024/02/26 01:38:28;;;;;;;;;;;6.90;99.90;;;;;;6736312;88;20057;-79
2024/02/26 01:48:28;;;;;;;;;;;6.70;99.90;;;;;;6732729;88;20155;-78
2024/02/26 01:58:30;;;;;;;;;;;6.80;99.90;;;;;;6733420;88;20055;-79
2024/02/26 02:08:30;;;;;;;;;;;6.70;99.90;;;;;;6750629;88;20094;-79
2024/02/26 02:18:31;;;;;;;;;;;6.70;99.90;;;;;;6742172;88;20050;-80
2024/02/26 02:28:32;;;;;;;;;;;6.60;99.90;;;;;;6729069;88;20054;-80
2024/02/26 02:38:33;;;;;;;;;;;6.40;99.90;;;;;;6733493;88;20890;-79
2024/02/26 02:48:34;;;;;;;;;;;6.60;99.90;;;;;;6734960;88;20147;-79
2024/02/26 02:58:34;;;;;;;;;;;6.50;99.90;;;;;;6734666;88;20228;-79
2024/02/26 03:19:16;;;;;;;;;;;6.60;99.90;;;;;;6683157;89;20202;-81
2024/02/26 03:29:17;;;;;;;;;;;6.70;99.90;;;;;;6683345;89;20466;-83
2024/02/26 03:39:17;;;;;;;;;;;6.40;99.90;;;;;;6680951;89;20077;-81
2024/02/26 03:49:18;;;;;;;;;;;6.40;99.90;;;;;;6672908;89;20103;-82
2024/02/26 03:59:19;;;;;;;;;;;6.30;99.90;;;;;;6677554;89;20060;-81
2024/02/26 04:09:19;;;;;;;;;;;6.30;99.90;;;;;;6661584;89;20071;-81
2024/02/26 04:19:19;;;;;;;;;;;6.40;99.90;;;;;;6658621;89;20117;-80
2024/02/26 04:29:20;;;;;;;;;;;6.40;99.90;;;;;;6657238;89;20092;-80
2024/02/26 04:39:20;;;;;;;;;;;6.50;99.90;;;;;;6656640;89;20086;-81
2024/02/26 04:49:21;;;;;;;;;;;6.40;99.90;;;;;;6656623;89;20060;-80
2024/02/26 04:59:21;;;;;;;;;;;6.40;99.90;;;;;;6657441;89;20126;-81
2024/02/26 05:09:22;;;;;;;;;;;6.40;99.90;;;;;;6671311;89;20086;-80
2024/02/26 05:19:22;;;;;;;;;;;6.40;99.90;;;;;;6673984;89;20101;-80
2024/02/26 05:29:23;;;;;;;;;;;6.40;99.90;;;;;;6674108;89;20065;-80
2024/02/26 05:39:23;;;;;;;;;;;6.30;99.90;;;;;;6674663;89;20052;-80
2024/02/26 05:49:24;;;;;;;;;;;6.20;99.90;;;;;;6676598;89;20075;-81
2024/02/26 05:59:25;;;;;;;;;;;6.20;99.90;;;;;;6674391;89;20143;-81
2024/02/26 06:09:25;;;;;;;;;;;6.10;99.90;;;;;;6673786;89;20070;-78
2024/02/26 06:19:26;;;;;;;;;;;6.10;99.90;;;;;;6667546;89;20150;-81
2024/02/26 06:29:26;;;;;;;;;;;6.10;99.90;;;;;;6661949;89;20116;-78
2024/02/26 06:39:26;;;;;;;;;;;6.10;99.90;;;;;;6655976;89;20136;-77
2024/02/26 06:49:27;;;;;;;;;;;6.10;99.90;;;;;;6674075;89;20060;-79
2024/02/26 06:59:28;;;;;;;;;;;6.10;99.90;;;;;;6670470;89;20508;-77
2024/02/26 07:09:28;;;;;;;;;;;6.10;99.90;;;;;;6677017;89;20160;-77
2024/02/26 07:19:29;;;;;;;;;;;6.10;99.90;;;;;;6679135;89;20489;-79
2024/02/26 07:29:29;;;;;;;;;;;6.10;99.90;;;;;;6677431;89;20528;-79
2024/02/26 07:39:30;;;;;;;;;;;6.10;99.90;;;;;;6675200;89;20061;-79
2024/02/26 07:49:30;;;;;;;;;;;6.10;99.90;;;;;;6683222;89;20552;-80
2024/02/26 07:59:31;;;;;;;;;;;6.10;99.90;;;;;;6688215;88;20074;-81
2024/02/26 08:09:31;;;;;;;;;;;6.10;99.90;;;;;;6691925;88;20068;-80
2024/02/26 08:19:32;;;;;;;;;;;6.10;99.90;;;;;;6691433;88;20234;-80
2024/02/26 08:29:32;;;;;;;;;;;6.10;99.90;;;;;;6677585;89;20048;-78
2024/02/26 08:39:33;;;;;;;;;;;6.20;99.90;;;;;;6681068;88;20073;-79
2024/02/26 08:49:33;;;;;;;;;;;6.20;99.90;;;;;;6674034;89;20103;-80
2024/02/26 08:59:34;;;;;;;;;;;6.10;99.90;;;;;;6673645;89;20197;-81
2024/02/26 09:09:34;;;;;;;;;;;6.00;99.90;;;;;;6659946;89;20098;-80
2024/02/26 09:19:35;;;;;;;;;;;6.00;99.90;;;;;;6674323;88;20526;-81
2024/02/26 09:29:36;;;;;;;;;;;5.90;99.90;;;;;;6672444;89;20074;-80
2024/02/26 09:39:36;;;;;;;;;;;6.00;99.90;;;;;;6673193;89;20060;-80
2024/02/26 09:49:38;;;;;;;;;;;6.10;99.90;;;;;;6668436;89;20061;-80
2024/02/26 09:59:40;;;;;;;;;;;6.20;99.90;;;;;;6678052;89;20281;-80
2024/02/26 10:09:40;;;;;;;;;;;6.40;99.90;;;;;;6670188;89;20803;-80
2024/02/26 10:19:41;;;;;;;;;;;6.50;99.90;;;;;;6677745;89;20056;-79
2024/02/26 10:29:42;;;;;;;;;;;6.80;99.90;;;;;;6676320;89;20075;-80
2024/02/26 10:39:47;;;;;;;;;;;7.00;99.90;;;;;;6676735;89;20078;-79
2024/02/26 10:49:48;;;;;;;;;;;7.20;99.90;;;;;;6670194;89;20532;-79
2024/02/26 10:59:48;;;;;;;;;;;7.10;99.90;;;;;;6672301;89;20082;-80
2024/02/26 11:09:52;;;;;;;;;;;7.30;99.90;;;;;;6670805;89;20279;-78
2024/02/26 11:19:55;;;;;;;;;;;7.30;99.90;;;;;;6670782;88;20828;-80
2024/02/26 11:29:57;;;;;;;;;;;7.20;99.90;;;;;;6670736;89;20075;-78
2024/02/26 11:39:59;;;;;;;;;;;7.20;99.90;;;;;;6674010;89;20495;-77
2024/02/26 11:49:59;;;;;;;;;;;7.20;99.90;;;;;;6668252;89;20114;-77
2024/02/26 12:00:06;;;;;;;;;;;7.20;99.90;;;;;;6669454;89;20562;-79
2024/02/26 12:10:15;;;;;;;;;;;7.40;99.90;;;;;;6670210;89;20226;-80
2024/02/26 12:20:16;;;;;;;;;;;7.30;99.90;;;;;;6685312;89;20060;-80
2024/02/26 12:30:17;;;;;;;;;;;7.40;99.90;;;;;;6673710;89;20154;-79
2024/02/26 12:40:18;;;;;;;;;;;7.70;99.90;;;;;;6669523;89;20119;-80
2024/02/26 12:50:18;;;;;;;;;;;7.60;99.90;;;;;;6674494;89;20119;-80
2024/02/26 13:00:23;;;;;;;;;;;7.60;99.90;;;;;;6664987;89;20596;-78
2024/02/26 13:10:25;;;;;;;;;;;7.70;99.90;;;;;;6676819;89;20129;-79
2024/02/26 13:20:29;;;;;;;;;;;7.60;99.90;;;;;;6672111;89;20130;-78
2024/02/26 13:30:29;;;;;;;;;;;7.60;99.90;;;;;;6673634;89;20119;-78
2024/02/26 13:40:29;;;;;;;;;;;7.60;99.90;;;;;;6669491;89;20092;-79
2024/02/26 14:00:34;;;;;;;;;;;7.50;99.90;;;;;;6739116;88;20178;-79
2024/02/26 14:10:38;;;;;;;;;;;7.40;99.90;;;;;;6733221;88;20074;-81
2024/02/26 14:20:41;;;;;;;;;;;7.40;99.90;;;;;;6718730;88;20137;-80
2024/02/26 14:30:44;;;;;;;;;;;7.40;99.90;;;;;;6719685;88;20078;-80
2024/02/26 14:40:44;;;;;;;;;;;7.50;99.90;;;;;;6723708;88;20051;-81
2024/02/26 14:50:45;;;;;;;;;;;7.60;99.90;;;;;;6740380;88;20149;-82
2024/02/26 15:00:45;;;;;;;;;;;7.60;99.90;;;;;;6743617;88;20060;-78
2024/02/26 15:10:48;;;;;;;;;;;7.60;99.90;;;;;;6747075;88;20039;-81
2024/02/26 15:20:49;;;;;;;;;;;7.60;99.90;;;;;;6748713;88;20056;-82
2024/02/26 15:30:49;;;;;;;;;;;7.60;99.90;;;;;;6735233;88;20080;-81
2024/02/26 15:40:50;;;;;;;;;;;7.70;99.90;;;;;;6740253;87;20039;-82
2024/02/26 15:50:50;;;;;;;;;;;7.70;99.90;;;;;;6737035;87;20665;-79
2024/02/26 16:00:51;;;;;;;;;;;7.80;99.90;;;;;;6744463;87;20129;-79
2024/02/26 16:10:52;;;;;;;;;;;7.70;99.90;;;;;;6749525;88;21009;-80
2024/02/26 16:20:54;;;;;;;;;;;7.70;99.90;;;;;;6750498;88;20037;-80
2024/02/26 16:30:54;;;;;;;;;;;7.50;99.90;;;;;;6747194;88;20125;-83
2024/02/26 16:40:55;;;;;;;;;;;7.50;99.90;;;;;;6746164;88;20070;-82
2024/02/26 16:50:55;;;;;;;;;;;7.40;99.90;;;;;;6743387;88;20074;-77
2024/02/26 17:00:56;;;;;;;;;;;7.50;99.90;;;;;;6737763;88;20859;-80
2024/02/26 17:10:56;;;;;;;;;;;7.50;99.90;;;;;;6732478;88;20059;-79
2024/02/26 17:20:57;;;;;;;;;;;7.50;99.90;;;;;;6731347;88;20071;-79
2024/02/26 17:30:57;;;;;;;;;;;7.40;99.90;;;;;;6727666;88;20085;-81
2024/02/26 17:40:58;;;;;;;;;;;7.50;99.90;;;;;;6747473;88;20059;-79
2024/02/26 17:50:58;;;;;;;;;;;7.50;99.90;;;;;;6733831;88;20109;-79
2024/02/26 18:00:59;;;;;;;;;;;7.50;99.90;;;;;;6733754;88;20084;-79
2024/02/26 18:11:00;;;;;;;;;;;7.50;99.90;;;;;;6731491;88;20501;-79
2024/02/26 18:21:00;;;;;;;;;;;7.40;99.90;;;;;;6723167;88;20091;-79
2024/02/26 18:31:01;;;;;;;;;;;7.40;99.90;;;;;;6723497;88;20182;-79
2024/02/26 18:41:03;;;;;;;;;;;7.40;99.90;;;;;;6728888;88;20588;-82
2024/02/26 18:51:03;;;;;;;;;;;7.40;99.90;;;;;;6739728;88;20076;-79
2024/02/26 19:01:04;;;;;;;;;;;7.40;99.90;;;;;;6744584;87;20106;-79
2024/02/26 19:11:08;;;;;;;;;;;7.40;99.90;;;;;;6724822;88;20198;-78
2024/02/26 19:21:08;;;;;;;;;;;7.40;99.90;;;;;;6728317;88;20035;-81
2024/02/26 19:31:10;;;;;;;;;;;7.30;99.90;;;;;;6746842;88;20106;-80
2024/02/26 19:41:11;;;;;;;;;;;7.40;99.90;;;;;;6742636;88;20177;-81
2024/02/26 20:01:15;;;;;;;;;;;7.40;99.90;;;;;;6761413;88;20057;-79
2024/02/26 20:11:17;;;;;;;;;;;7.30;99.90;;;;;;6737996;88;20079;-78
2024/02/26 20:21:17;;;;;;;;;;;7.40;99.90;;;;;;6745334;88;20486;-78
2024/02/26 20:31:18;;;;;;;;;;;7.40;99.90;;;;;;6742697;88;20065;-78
2024/02/26 20:41:18;;;;;;;;;;;7.30;99.90;;;;;;6731548;88;20061;-76
2024/02/26 20:51:19;;;;;;;;;;;7.30;99.90;;;;;;6734219;88;20098;-78
2024/02/26 21:01:19;;;;;;;;;;;7.30;99.90;;;;;;6735355;88;20113;-79
2024/02/26 21:11:21;;;;;;;;;;;7.20;99.90;;;;;;6742205;88;20503;-77
2024/02/26 21:21:24;;;;;;;;;;;7.20;99.90;;;;;;6737313;88;20117;-79
2024/02/26 21:31:24;;;;;;;;;;;7.10;99.90;;;;;;6734559;88;20073;-79
2024/02/26 21:41:26;;;;;;;;;;;7.10;99.90;;;;;;6729893;88;20071;-78
2024/02/26 21:51:27;;;;;;;;;;;7.10;99.90;;;;;;6718252;88;20076;-77
2024/02/26 22:01:27;;;;;;;;;;;7.10;99.90;;;;;;6733069;88;20163;-78
2024/02/26 22:11:27;;;;;;;;;;;7.10;99.90;;;;;;6726383;88;20073;-78
2024/02/26 22:21:28;;;;;;;;;;;7.00;99.90;;;;;;6725787;88;20552;-77
2024/02/26 22:31:29;;;;;;;;;;;7.00;99.90;;;;;;6728960;88;20067;-78
2024/02/26 22:41:30;;;;;;;;;;;7.00;99.90;;;;;;6733011;88;20049;-79
2024/02/26 22:51:31;;;;;;;;;;;7.00;99.90;;;;;;6729870;88;20238;-79
2024/02/26 23:01:32;;;;;;;;;;;7.00;99.90;;;;;;6733505;88;20179;-78
2024/02/26 23:11:32;;;;;;;;;;;7.10;99.90;;;;;;6735001;88;20527;-79
2024/02/26 23:21:33;;;;;;;;;;;7.10;99.90;;;;;;6731617;88;20054;-79
2024/02/26 23:31:33;;;;;;;;;;;7.10;99.90;;;;;;6732347;88;20521;-79
2024/02/26 23:41:34;;;;;;;;;;;7.10;99.90;;;;;;6738285;88;20053;-79
2024/02/26 23:51:35;;;;;;;;;;;7.00;99.90;;;;;;6742544;88;20136;-78
